Time;durP1;ratioP1;P1;durP2;ratioP2;P2;SDS_P1;SDS_P2;PMS_P1;PMS_P2;Temp;Humidity;BMP_temperature;BMP_pressure;BME280_temperature;BME280_humidity;BME280_pressure;Samples;Min_cycle;Max_cycle;Signal;HPM_P1;HPM_P2
2019/09/13 00:01:35;;;;;;;1.55;1.40;;;;;;;21.31;54.68;101972.46;;;;-52
2019/09/13 00:04:35;;;;;;;1.63;1.53;;;;;;;21.32;54.74;101973.41;;;;-52
2019/09/13 00:07:35;;;;;;;1.47;1.30;;;;;;;21.31;54.77;101974.02;;;;-57
2019/09/13 00:10:35;;;;;;;1.95;1.43;;;;;;;21.31;54.69;101979.73;;;;-55
2019/09/13 00:13:35;;;;;;;1.37;1.27;;;;;;;21.30;54.72;101977.00;;;;-56
2019/09/13 00:16:35;;;;;;;1.74;1.33;;;;;;;21.30;54.74;101978.41;;;;-56
2019/09/13 00:19:35;;;;;;;1.42;1.32;;;;;;;21.29;54.71;101971.16;;;;-56
2019/09/13 00:22:35;;;;;;;1.49;1.34;;;;;;;21.28;54.74;101966.40;;;;-56
2019/09/13 00:25:35;;;;;;;1.86;1.30;;;;;;;21.29;54.79;101969.03;;;;-56
2019/09/13 00:28:35;;;;;;;1.61;1.42;;;;;;;21.28;54.75;101968.53;;;;-56
2019/09/13 00:31:35;;;;;;;2.82;1.50;;;;;;;21.28;54.76;101968.63;;;;-56
2019/09/13 00:34:35;;;;;;;2.03;1.41;;;;;;;21.28;54.77;101973.67;;;;-56
2019/09/13 00:37:35;;;;;;;2.29;1.30;;;;;;;21.27;54.73;101970.48;;;;-55
2019/09/13 00:40:35;;;;;;;2.15;1.40;;;;;;;21.27;54.74;101968.08;;;;-56
2019/09/13 00:43:35;;;;;;;1.68;1.55;;;;;;;21.27;54.76;101970.83;;;;-56
2019/09/13 00:46:35;;;;;;;2.02;1.45;;;;;;;21.27;54.77;101969.91;;;;-56
2019/09/13 00:49:35;;;;;;;1.58;1.31;;;;;;;21.26;54.77;101967.10;;;;-56
2019/09/13 00:52:35;;;;;;;1.68;1.34;;;;;;;21.26;54.75;101962.39;;;;-56
2019/09/13 00:55:35;;;;;;;1.41;1.31;;;;;;;21.25;54.75;101963.69;;;;-57
2019/09/13 00:58:35;;;;;;;1.54;1.30;;;;;;;21.25;54.80;101965.42;;;;-56
2019/09/13 01:01:35;;;;;;;1.55;1.30;;;;;;;21.25;54.77;101970.47;;;;-57
2019/09/13 01:04:35;;;;;;;2.47;1.40;;;;;;;21.25;54.75;101974.78;;;;-56
2019/09/13 01:07:35;;;;;;;1.40;1.30;;;;;;;21.25;54.77;101970.62;;;;-56
2019/09/13 01:10:35;;;;;;;1.41;1.31;;;;;;;21.24;54.76;101969.16;;;;-56
2019/09/13 01:13:35;;;;;;;2.32;1.44;;;;;;;21.24;54.76;101970.02;;;;-56
2019/09/13 01:16:35;;;;;;;2.06;1.33;;;;;;;21.23;54.79;101972.64;;;;-57
2019/09/13 01:19:35;;;;;;;1.61;1.40;;;;;;;21.23;54.80;101970.13;;;;-56
2019/09/13 01:22:35;;;;;;;1.41;1.31;;;;;;;21.23;54.77;101971.63;;;;-56
2019/09/13 01:25:35;;;;;;;1.75;1.40;;;;;;;21.23;54.81;101970.78;;;;-56
2019/09/13 01:28:35;;;;;;;1.40;1.30;;;;;;;21.23;54.74;101969.27;;;;-56
2019/09/13 01:31:35;;;;;;;1.50;1.39;;;;;;;21.23;54.77;101975.56;;;;-57
2019/09/13 01:34:35;;;;;;;1.40;1.30;;;;;;;21.23;54.73;101974.70;;;;-55
2019/09/13 01:37:35;;;;;;;1.63;1.21;;;;;;;21.23;54.75;101978.17;;;;-55
2019/09/13 01:40:35;;;;;;;1.79;1.35;;;;;;;21.22;54.76;101976.27;;;;-56
2019/09/13 01:43:35;;;;;;;1.31;1.21;;;;;;;21.22;54.74;101976.17;;;;-55
2019/09/13 01:46:35;;;;;;;1.34;1.24;;;;;;;21.21;54.71;101971.58;;;;-55
2019/09/13 01:49:35;;;;;;;2.40;1.30;;;;;;;21.22;54.74;101971.06;;;;-56
2019/09/13 01:52:35;;;;;;;1.39;1.22;;;;;;;21.22;54.75;101975.98;;;;-55
2019/09/13 01:55:34;;;;;;;1.45;1.35;;;;;;;21.21;54.77;101978.62;;;;-56
2019/09/13 01:58:34;;;;;;;1.32;1.22;;;;;;;21.20;54.76;101975.20;;;;-56
2019/09/13 02:01:35;;;;;;;1.47;1.35;;;;;;;21.20;54.80;101977.73;;;;-56
2019/09/13 02:04:35;;;;;;;1.60;1.38;;;;;;;21.19;54.79;101980.97;;;;-57
2019/09/13 02:07:35;;;;;;;1.32;1.22;;;;;;;21.20;54.75;101985.06;;;;-55
2019/09/13 02:10:35;;;;;;;1.37;1.27;;;;;;;21.20;54.81;101986.45;;;;-55
2019/09/13 02:13:35;;;;;;;1.96;1.30;;;;;;;21.19;54.81;101986.73;;;;-55
2019/09/13 02:16:35;;;;;;;1.29;1.20;;;;;;;21.20;54.78;101987.13;;;;-56
2019/09/13 02:19:35;;;;;;;1.43;1.33;;;;;;;21.19;54.81;101987.34;;;;-57
2019/09/13 02:22:35;;;;;;;1.34;1.24;;;;;;;21.19;54.81;101984.38;;;;-56
2019/09/13 02:25:35;;;;;;;1.49;1.26;;;;;;;21.19;54.76;101980.17;;;;-56
2019/09/13 02:28:35;;;;;;;1.31;1.21;;;;;;;21.18;54.78;101973.44;;;;-55
2019/09/13 02:31:35;;;;;;;1.57;1.28;;;;;;;21.18;54.80;101970.14;;;;-57
2019/09/13 02:34:34;;;;;;;1.47;1.37;;;;;;;21.18;54.82;101967.34;;;;-55
2019/09/13 02:37:35;;;;;;;1.39;1.29;;;;;;;21.18;54.77;101959.95;;;;-56
2019/09/13 02:40:35;;;;;;;1.43;1.33;;;;;;;21.17;54.83;101957.81;;;;-55
2019/09/13 02:43:35;;;;;;;1.41;1.30;;;;;;;21.17;54.78;101962.36;;;;-57
2019/09/13 02:46:35;;;;;;;1.29;1.20;;;;;;;21.17;54.75;101963.38;;;;-55
2019/09/13 02:49:34;;;;;;;1.80;1.29;;;;;;;21.17;54.80;101963.25;;;;-56
2019/09/13 02:52:35;;;;;;;1.63;1.30;;;;;;;21.16;54.84;101962.97;;;;-56
2019/09/13 02:55:35;;;;;;;1.32;1.22;;;;;;;21.16;54.77;101963.86;;;;-56
2019/09/13 02:58:35;;;;;;;1.64;1.31;;;;;;;21.16;54.78;101964.97;;;;-55
2019/09/13 03:01:35;;;;;;;1.59;1.49;;;;;;;21.17;54.81;101965.77;;;;-56
2019/09/13 03:04:35;;;;;;;1.37;1.27;;;;;;;21.16;54.79;101962.17;;;;-56
2019/09/13 03:07:34;;;;;;;1.64;1.35;;;;;;;21.16;54.77;101960.83;;;;-56
2019/09/13 03:10:35;;;;;;;1.37;1.26;;;;;;;21.15;54.78;101965.36;;;;-55
2019/09/13 03:13:35;;;;;;;1.30;1.20;;;;;;;21.16;54.81;101969.06;;;;-57
2019/09/13 03:16:35;;;;;;;1.33;1.24;;;;;;;21.15;54.80;101976.18;;;;-56
2019/09/13 03:19:35;;;;;;;1.35;1.25;;;;;;;21.16;54.75;101976.80;;;;-56
2019/09/13 03:22:35;;;;;;;1.41;1.31;;;;;;;21.15;54.74;101975.55;;;;-56
2019/09/13 03:25:34;;;;;;;1.87;1.32;;;;;;;21.15;54.80;101986.70;;;;-56
2019/09/13 03:28:35;;;;;;;1.45;1.35;;;;;;;21.15;54.79;101981.48;;;;-56
2019/09/13 03:31:35;;;;;;;1.33;1.23;;;;;;;21.14;54.76;101982.05;;;;-55
2019/09/13 03:34:35;;;;;;;1.30;1.20;;;;;;;21.14;54.80;101986.63;;;;-56
2019/09/13 03:37:35;;;;;;;1.63;1.43;;;;;;;21.14;54.78;101985.36;;;;-57
2019/09/13 03:40:35;;;;;;;1.44;1.28;;;;;;;21.14;54.76;101985.20;;;;-56
2019/09/13 03:43:34;;;;;;;1.28;1.20;;;;;;;21.13;54.82;101981.27;;;;-55
2019/09/13 03:46:35;;;;;;;1.40;1.30;;;;;;;21.13;54.81;101981.44;;;;-56
2019/09/13 03:49:35;;;;;;;1.50;1.40;;;;;;;21.13;54.76;101979.58;;;;-55
2019/09/13 03:52:35;;;;;;;1.25;1.20;;;;;;;21.12;54.75;101979.19;;;;-56
2019/09/13 03:55:35;;;;;;;1.30;1.20;;;;;;;21.13;54.78;101975.60;;;;-57
2019/09/13 03:58:35;;;;;;;1.52;1.42;;;;;;;21.13;54.78;101975.71;;;;-56
2019/09/13 04:01:34;;;;;;;1.40;1.30;;;;;;;21.13;54.82;101975.72;;;;-56
2019/09/13 04:04:35;;;;;;;1.30;1.20;;;;;;;21.13;54.78;101980.64;;;;-56
2019/09/13 04:07:35;;;;;;;1.42;1.30;;;;;;;21.12;54.80;101984.40;;;;-56
2019/09/13 04:10:35;;;;;;;1.40;1.30;;;;;;;21.12;54.79;101988.75;;;;-56
2019/09/13 04:13:35;;;;;;;1.43;1.33;;;;;;;21.12;54.80;101987.58;;;;-56
2019/09/13 04:16:35;;;;;;;1.29;1.19;;;;;;;21.11;54.79;101991.48;;;;-56
2019/09/13 04:19:34;;;;;;;1.35;1.25;;;;;;;21.11;54.78;101997.03;;;;-55
2019/09/13 04:22:35;;;;;;;1.51;1.40;;;;;;;21.12;54.74;101998.55;;;;-56
2019/09/13 04:25:35;;;;;;;1.39;1.29;;;;;;;21.11;54.80;101998.66;;;;-56
2019/09/13 04:28:35;;;;;;;1.40;1.30;;;;;;;21.11;54.80;102003.47;;;;-56
2019/09/13 04:31:35;;;;;;;1.31;1.23;;;;;;;21.11;54.81;102006.73;;;;-56
2019/09/13 04:34:34;;;;;;;1.25;1.21;;;;;;;21.10;54.75;102002.34;;;;-56
2019/09/13 04:37:35;;;;;;;1.30;1.20;;;;;;;21.11;54.76;102008.45;;;;-55
2019/09/13 04:40:35;;;;;;;1.32;1.22;;;;;;;21.12;54.76;102010.98;;;;-55
2019/09/13 04:43:35;;;;;;;1.51;1.20;;;;;;;21.11;54.80;102005.16;;;;-56
2019/09/13 04:46:35;;;;;;;1.23;1.18;;;;;;;21.11;54.74;102014.73;;;;-56
2019/09/13 04:49:35;;;;;;;1.29;1.19;;;;;;;21.10;54.75;102024.30;;;;-55
2019/09/13 04:52:35;;;;;;;1.25;1.15;;;;;;;21.11;54.71;102029.79;;;;-55
2019/09/13 04:55:35;;;;;;;1.27;1.20;;;;;;;21.10;54.76;102030.06;;;;-56
2019/09/13 04:58:35;;;;;;;1.40;1.30;;;;;;;21.10;54.74;102034.38;;;;-56
2019/09/13 05:01:35;;;;;;;1.39;1.29;;;;;;;21.10;54.76;102033.87;;;;-56
2019/09/13 05:04:35;;;;;;;1.41;1.21;;;;;;;21.09;54.77;102024.45;;;;-55
2019/09/13 05:07:35;;;;;;;1.13;1.11;;;;;;;21.10;54.74;102031.30;;;;-56
2019/09/13 05:10:35;;;;;;;1.56;1.30;;;;;;;21.10;54.82;102030.69;;;;-55
2019/09/13 05:13:35;;;;;;;1.35;1.25;;;;;;;21.10;54.71;102038.19;;;;-56
2019/09/13 05:16:35;;;;;;;1.37;1.27;;;;;;;21.10;54.79;102037.85;;;;-55
2019/09/13 05:19:35;;;;;;;1.30;1.20;;;;;;;21.09;54.74;102032.69;;;;-55
2019/09/13 05:22:35;;;;;;;1.40;1.30;;;;;;;21.09;54.71;102029.44;;;;-56
2019/09/13 05:25:35;;;;;;;1.35;1.25;;;;;;;21.09;54.73;102029.16;;;;-56
2019/09/13 05:28:35;;;;;;;1.34;1.24;;;;;;;21.09;54.80;102030.17;;;;-56
2019/09/13 05:31:34;;;;;;;1.40;1.30;;;;;;;21.09;54.71;102028.44;;;;-56
2019/09/13 05:34:35;;;;;;;1.35;1.25;;;;;;;21.10;54.73;102028.45;;;;-56
2019/09/13 05:37:35;;;;;;;1.29;1.19;;;;;;;21.10;54.74;102035.67;;;;-56
2019/09/13 05:40:35;;;;;;;1.30;1.20;;;;;;;21.10;54.73;102044.47;;;;-56
2019/09/13 05:43:35;;;;;;;1.40;1.30;;;;;;;21.09;54.73;102046.36;;;;-56
2019/09/13 05:46:35;;;;;;;1.28;1.20;;;;;;;21.09;54.76;102052.91;;;;-57
2019/09/13 05:49:35;;;;;;;1.84;1.27;;;;;;;21.09;54.72;102057.78;;;;-56
2019/09/13 05:52:35;;;;;;;1.27;1.20;;;;;;;21.08;54.79;102057.43;;;;-55
2019/09/13 05:55:35;;;;;;;1.29;1.19;;;;;;;21.08;54.71;102059.50;;;;-56
2019/09/13 05:58:35;;;;;;;1.31;1.21;;;;;;;21.08;54.76;102061.19;;;;-56
2019/09/13 06:01:35;;;;;;;1.30;1.20;;;;;;;21.09;54.76;102057.95;;;;-55
2019/09/13 06:04:34;;;;;;;1.29;1.20;;;;;;;21.10;54.73;102061.77;;;;-54
2019/09/13 06:07:34;;;;;;;1.56;1.32;;;;;;;21.09;54.72;102064.34;;;;-56
2019/09/13 06:10:35;;;;;;;1.39;1.29;;;;;;;21.08;54.75;102060.13;;;;-56
2019/09/13 06:14:01;;;;;;;1.30;1.20;;;;;;;21.08;54.74;102056.71;;;;-55
2019/09/13 06:16:35;;;;;;;1.22;1.13;;;;;;;21.08;54.74;102059.45;;;;-56
2019/09/13 06:19:34;;;;;;;1.36;1.26;;;;;;;21.09;54.72;102056.83;;;;-55
2019/09/13 06:22:34;;;;;;;1.28;1.20;;;;;;;21.08;54.71;102055.64;;;;-55
2019/09/13 06:25:34;;;;;;;1.35;1.25;;;;;;;21.08;54.75;102056.15;;;;-57
2019/09/13 06:28:35;;;;;;;1.40;1.30;;;;;;;21.07;54.75;102049.25;;;;-57
2019/09/13 06:31:35;;;;;;;1.30;1.20;;;;;;;21.08;54.72;102055.47;;;;-55
2019/09/13 06:34:35;;;;;;;1.29;1.20;;;;;;;21.08;54.73;102055.03;;;;-56
2019/09/13 06:37:34;;;;;;;1.37;1.27;;;;;;;21.07;54.78;102052.55;;;;-56
2019/09/13 06:40:34;;;;;;;1.30;1.20;;;;;;;21.08;54.72;102050.39;;;;-56
2019/09/13 06:43:35;;;;;;;1.39;1.29;;;;;;;21.07;54.77;102049.80;;;;-56
2019/09/13 06:46:35;;;;;;;1.22;1.20;;;;;;;21.07;54.71;102053.39;;;;-56
2019/09/13 06:49:35;;;;;;;1.73;1.26;;;;;;;21.06;54.79;102056.13;;;;-55
2019/09/13 06:52:35;;;;;;;1.36;1.26;;;;;;;21.07;54.76;102064.25;;;;-55
2019/09/13 06:55:34;;;;;;;1.39;1.29;;;;;;;21.07;54.75;102060.51;;;;-55
2019/09/13 06:58:35;;;;;;;1.42;1.25;;;;;;;21.07;54.71;102067.51;;;;-55
2019/09/13 07:01:35;;;;;;;1.41;1.19;;;;;;;21.07;54.72;102066.00;;;;-56
2019/09/13 07:04:35;;;;;;;4.14;1.70;;;;;;;21.05;55.59;102074.55;;;;-56
2019/09/13 07:07:35;;;;;;;3.27;2.24;;;;;;;21.03;55.91;102078.11;;;;-58
2019/09/13 07:10:35;;;;;;;3.63;2.19;;;;;;;21.01;55.91;102071.38;;;;-54
2019/09/13 07:13:34;;;;;;;3.73;2.17;;;;;;;21.04;55.99;102074.37;;;;-54
2019/09/13 07:16:34;;;;;;;4.16;1.99;;;;;;;21.08;55.78;102083.30;;;;-53
2019/09/13 07:19:35;;;;;;;2.57;1.95;;;;;;;21.11;55.70;102087.49;;;;-54
2019/09/13 07:22:35;;;;;;;2.07;1.78;;;;;;;21.14;55.51;102091.26;;;;-54
2019/09/13 07:25:35;;;;;;;2.89;1.70;;;;;;;21.15;55.45;102093.95;;;;-54
2019/09/13 07:28:35;;;;;;;4.33;1.78;;;;;;;21.16;55.40;102095.13;;;;-54
2019/09/13 07:31:34;;;;;;;2.77;1.97;;;;;;;21.17;55.29;102101.97;;;;-54
2019/09/13 07:34:35;;;;;;;2.97;1.85;;;;;;;21.18;55.23;102094.98;;;;-53
2019/09/13 07:37:35;;;;;;;2.11;1.70;;;;;;;21.18;55.19;102092.69;;;;-54
2019/09/13 07:40:35;;;;;;;2.38;1.67;;;;;;;21.18;55.06;102099.34;;;;-56
2019/09/13 07:43:35;;;;;;;3.03;1.77;;;;;;;21.19;55.00;102101.59;;;;-49
2019/09/13 07:46:35;;;;;;;1.91;1.71;;;;;;;21.19;55.00;102103.78;;;;-49
2019/09/13 07:49:34;;;;;;;3.91;1.70;;;;;;;21.20;55.01;102099.72;;;;-49
2019/09/13 07:52:34;;;;;;;3.35;1.69;;;;;;;21.21;54.98;102101.78;;;;-49
2019/09/13 07:55:34;;;;;;;1.66;1.56;;;;;;;21.22;54.90;102111.93;;;;-49
2019/09/13 07:58:35;;;;;;;2.29;1.69;;;;;;;21.21;54.90;102114.00;;;;-49
2019/09/13 08:01:35;;;;;;;3.36;1.89;;;;;;;21.22;54.92;102115.41;;;;-57
2019/09/13 08:04:35;;;;;;;3.21;1.79;;;;;;;21.22;55.08;102118.50;;;;-57
2019/09/13 08:07:34;;;;;;;3.79;1.94;;;;;;;21.23;55.44;102119.83;;;;-58
2019/09/13 08:10:34;;;;;;;6.43;1.97;;;;;;;21.25;55.48;102120.63;;;;-50
2019/09/13 08:13:35;;;;;;;6.81;2.39;;;;;;;21.27;55.74;102124.09;;;;-51
2019/09/13 08:16:35;;;;;;;5.28;2.21;;;;;;;21.30;55.70;102126.34;;;;-49
2019/09/13 08:19:35;;;;;;;6.05;2.10;;;;;;;21.33;56.00;102126.08;;;;-50
2019/09/13 08:22:34;;;;;;;5.87;2.45;;;;;;;21.34;55.96;102124.45;;;;-51
2019/09/13 08:25:34;;;;;;;7.65;2.39;;;;;;;21.37;56.13;102132.45;;;;-56
2019/09/13 08:28:34;;;;;;;7.73;2.62;;;;;;;21.37;55.84;102130.09;;;;-57
2019/09/13 08:31:35;;;;;;;9.58;2.64;;;;;;;21.36;56.16;102127.23;;;;-51
2019/09/13 08:34:35;;;;;;;5.58;2.40;;;;;;;21.38;56.27;102130.44;;;;-51
2019/09/13 08:37:35;;;;;;;5.52;2.31;;;;;;;21.41;56.23;102124.13;;;;-50
2019/09/13 08:40:35;;;;;;;6.69;2.38;;;;;;;21.42;56.24;102126.94;;;;-50
2019/09/13 08:43:34;;;;;;;8.23;2.67;;;;;;;21.44;56.26;102127.35;;;;-52
2019/09/13 08:46:34;;;;;;;7.84;2.35;;;;;;;21.41;55.86;102132.14;;;;-48
2019/09/13 08:49:35;;;;;;;8.55;2.59;;;;;;;21.41;56.03;102131.75;;;;-52
2019/09/13 08:52:35;;;;;;;9.67;2.59;;;;;;;21.40;55.87;102139.08;;;;-49
2019/09/13 08:55:35;;;;;;;10.55;2.71;;;;;;;21.41;55.90;102142.96;;;;-49
2019/09/13 08:58:34;;;;;;;7.77;2.57;;;;;;;21.40;55.63;102147.31;;;;-49
2019/09/13 09:01:35;;;;;;;4.25;2.11;;;;;;;21.40;55.69;102147.38;;;;-49
2019/09/13 09:04:35;;;;;;;5.81;2.39;;;;;;;21.40;55.52;102145.25;;;;-46
2019/09/13 09:07:35;;;;;;;6.75;2.40;;;;;;;21.40;55.61;102140.09;;;;-47
2019/09/13 09:10:34;;;;;;;7.74;2.59;;;;;;;21.39;55.50;102134.98;;;;-49
2019/09/13 09:15:34;;;;;;;6.02;2.26;;;;;;;21.39;55.34;102138.41;;;;-49
2019/09/13 09:18:34;;;;;;;6.01;2.35;;;;;;;21.39;55.41;102139.86;;;;-49
2019/09/13 09:21:34;;;;;;;5.67;2.37;;;;;;;21.38;55.37;102138.11;;;;-50
2019/09/13 09:24:35;;;;;;;5.88;2.15;;;;;;;21.39;55.29;102142.22;;;;-49
2019/09/13 09:27:35;;;;;;;5.13;2.39;;;;;;;21.39;55.35;102151.69;;;;-49
2019/09/13 09:30:35;;;;;;;4.01;2.19;;;;;;;21.38;55.32;102147.14;;;;-49
2019/09/13 09:33:35;;;;;;;8.77;2.53;;;;;;;21.37;55.29;102141.30;;;;-51
2019/09/13 09:36:34;;;;;;;5.23;2.35;;;;;;;21.38;55.27;102142.09;;;;-51
2019/09/13 09:39:34;;;;;;;3.73;2.17;;;;;;;21.39;55.28;102149.61;;;;-46
2019/09/13 09:42:34;;;;;;;5.04;2.16;;;;;;;21.37;55.12;102145.13;;;;-57
2019/09/13 09:45:35;;;;;;;3.73;2.19;;;;;;;21.37;55.12;102142.09;;;;-49
2019/09/13 09:48:35;;;;;;;5.37;2.29;;;;;;;21.38;55.18;102140.47;;;;-46
2019/09/13 09:51:35;;;;;;;4.13;2.11;;;;;;;21.37;55.17;102131.61;;;;-51
2019/09/13 09:54:34;;;;;;;4.25;2.20;;;;;;;21.37;55.10;102120.08;;;;-49
2019/09/13 09:57:34;;;;;;;4.24;2.17;;;;;;;21.37;55.13;102115.75;;;;-52
2019/09/13 10:00:35;;;;;;;4.33;2.23;;;;;;;21.37;55.11;102114.34;;;;-51
2019/09/13 10:03:35;;;;;;;3.84;2.25;;;;;;;21.36;55.07;102121.01;;;;-51
2019/09/13 10:06:35;;;;;;;5.31;2.11;;;;;;;21.37;55.09;102119.28;;;;-52
2019/09/13 10:09:34;;;;;;;3.32;1.97;;;;;;;21.37;55.01;102113.73;;;;-51
2019/09/13 10:12:34;;;;;;;4.13;2.02;;;;;;;21.38;55.00;102116.27;;;;-51
2019/09/13 10:15:34;;;;;;;3.81;2.10;;;;;;;21.37;54.94;102115.92;;;;-51
2019/09/13 10:18:34;;;;;;;4.25;2.21;;;;;;;21.37;54.92;102117.22;;;;-51
2019/09/13 10:21:35;;;;;;;3.13;2.13;;;;;;;21.38;54.89;102112.02;;;;-50
2019/09/13 10:24:35;;;;;;;4.05;1.99;;;;;;;21.37;54.95;102115.37;;;;-51
2019/09/13 10:27:34;;;;;;;5.76;2.20;;;;;;;21.38;54.93;102117.45;;;;-51
2019/09/13 10:30:34;;;;;;;5.05;2.20;;;;;;;21.36;54.89;102112.27;;;;-51
2019/09/13 10:33:34;;;;;;;4.07;1.89;;;;;;;21.37;54.90;102107.30;;;;-52
2019/09/13 10:36:34;;;;;;;3.25;2.10;;;;;;;21.36;54.86;102104.09;;;;-49
2019/09/13 10:39:35;;;;;;;2.73;2.01;;;;;;;21.37;54.89;102102.03;;;;-49
2019/09/13 10:42:35;;;;;;;3.75;2.05;;;;;;;21.36;54.87;102100.34;;;;-47
2019/09/13 10:45:34;;;;;;;3.58;1.80;;;;;;;21.37;54.83;102099.62;;;;-57
2019/09/13 10:48:34;;;;;;;3.99;2.07;;;;;;;21.36;54.85;102099.50;;;;-58
2019/09/13 10:51:34;;;;;;;3.53;1.99;;;;;;;21.37;54.83;102096.66;;;;-57
2019/09/13 10:54:34;;;;;;;3.41;1.89;;;;;;;21.36;54.80;102095.41;;;;-57
2019/09/13 10:57:34;;;;;;;3.27;2.00;;;;;;;21.36;54.82;102094.63;;;;-57
2019/09/13 11:00:35;;;;;;;2.79;1.99;;;;;;;21.36;54.83;102099.89;;;;-57
2019/09/13 11:03:34;;;;;;;2.75;1.83;;;;;;;21.37;54.80;102100.96;;;;-57
2019/09/13 11:06:34;;;;;;;4.07;1.90;;;;;;;21.36;54.85;102097.59;;;;-59
2019/09/13 11:09:34;;;;;;;2.78;2.00;;;;;;;21.36;54.81;102102.52;;;;-59
2019/09/13 11:12:34;;;;;;;4.44;1.91;;;;;;;21.37;54.79;102099.57;;;;-60
2019/09/13 11:15:35;;;;;;;4.91;1.97;;;;;;;21.36;54.79;102096.70;;;;-59
2019/09/13 11:18:35;;;;;;;2.88;1.79;;;;;;;21.36;54.75;102100.96;;;;-60
2019/09/13 11:21:34;;;;;;;3.96;2.05;;;;;;;21.37;54.73;102101.59;;;;-59
2019/09/13 11:24:34;;;;;;;2.91;1.93;;;;;;;21.37;54.72;102099.05;;;;-59
2019/09/13 11:27:34;;;;;;;2.02;1.74;;;;;;;21.38;54.68;102100.14;;;;-59
2019/09/13 11:30:35;;;;;;;3.21;2.01;;;;;;;21.37;54.72;102092.00;;;;-59
2019/09/13 11:33:35;;;;;;;3.24;1.76;;;;;;;21.37;54.69;102093.17;;;;-59
2019/09/13 11:36:35;;;;;;;4.44;1.81;;;;;;;21.38;54.69;102099.13;;;;-59
2019/09/13 11:39:34;;;;;;;3.91;1.95;;;;;;;21.37;54.64;102099.56;;;;-59
2019/09/13 11:42:34;;;;;;;3.52;1.80;;;;;;;21.39;54.68;102103.67;;;;-59
2019/09/13 11:45:34;;;;;;;2.18;1.72;;;;;;;21.35;54.77;102099.66;;;;-59
2019/09/13 11:48:34;;;;;;;7.62;2.20;;;;;;;21.35;54.84;102094.39;;;;-58
2019/09/13 11:51:35;;;;;;;4.31;2.09;;;;;;;21.37;55.04;102092.16;;;;-49
2019/09/13 11:54:35;;;;;;;7.43;2.04;;;;;;;21.40;54.98;102086.42;;;;-48
2019/09/13 11:57:34;;;;;;;11.75;2.10;;;;;;;21.41;55.00;102087.03;;;;-51
2019/09/13 12:00:37;;;;;;;5.42;2.18;;;;;;;21.42;55.13;102083.73;;;;-51
2019/09/13 12:03:34;;;;;;;8.81;2.20;;;;;;;21.44;55.10;102082.81;;;;-49
2019/09/13 12:06:34;;;;;;;6.28;2.03;;;;;;;21.47;55.09;102078.95;;;;-49
2019/09/13 12:09:35;;;;;;;6.27;2.21;;;;;;;21.47;55.18;102079.14;;;;-49
2019/09/13 12:12:35;;;;;;;6.11;2.29;;;;;;;21.46;55.31;102078.05;;;;-49
2019/09/13 12:15:34;;;;;;;9.36;2.10;;;;;;;21.47;55.26;102072.92;;;;-47
2019/09/13 12:18:34;;;;;;;6.99;2.05;;;;;;;21.48;55.37;102068.53;;;;-48
2019/09/13 12:21:34;;;;;;;4.96;1.99;;;;;;;21.49;55.26;102066.66;;;;-50
2019/09/13 12:24:34;;;;;;;7.69;2.11;;;;;;;21.50;55.23;102062.84;;;;-47
2019/09/13 12:27:35;;;;;;;6.51;2.29;;;;;;;21.50;55.35;102060.59;;;;-47
2019/09/13 12:30:34;;;;;;;3.72;2.04;;;;;;;21.52;55.38;102063.13;;;;-48
2019/09/13 12:33:34;;;;;;;7.35;2.00;;;;;;;21.52;55.34;102062.86;;;;-49
2019/09/13 12:36:34;;;;;;;5.49;2.13;;;;;;;21.53;55.37;102052.67;;;;-48
2019/09/13 12:39:34;;;;;;;8.63;2.17;;;;;;;21.55;55.34;102055.31;;;;-51
2019/09/13 12:42:34;;;;;;;6.88;2.21;;;;;;;21.54;55.31;102049.25;;;;-61
2019/09/13 12:45:34;;;;;;;9.99;2.47;;;;;;;21.55;55.96;102048.53;;;;-47
2019/09/13 12:48:34;;;;;;;12.89;2.53;;;;;;;21.56;55.74;102046.52;;;;-51
2019/09/13 12:51:34;;;;;;;12.49;2.41;;;;;;;21.57;55.50;102050.95;;;;-50
2019/09/13 12:54:34;;;;;;;16.25;2.78;;;;;;;21.58;55.73;102049.03;;;;-50
2019/09/13 12:57:34;;;;;;;12.49;2.59;;;;;;;21.60;55.71;102046.18;;;;-50
2019/09/13 13:00:35;;;;;;;6.77;2.39;;;;;;;21.61;55.79;102042.04;;;;-53
2019/09/13 13:03:35;;;;;;;11.77;2.52;;;;;;;21.62;55.71;102034.14;;;;-58
2019/09/13 13:06:34;;;;;;;7.85;2.56;;;;;;;21.63;55.69;102027.70;;;;-54
2019/09/13 13:09:34;;;;;;;8.28;2.51;;;;;;;21.63;55.58;102024.23;;;;-51
2019/09/13 13:12:34;;;;;;;16.51;2.67;;;;;;;21.64;55.71;102026.64;;;;-53
2019/09/13 13:15:34;;;;;;;7.37;2.34;;;;;;;21.64;55.89;102027.31;;;;-51
2019/09/13 13:18:34;;;;;;;6.69;2.49;;;;;;;21.64;55.59;102023.39;;;;-55
2019/09/13 13:21:34;;;;;;;10.32;2.46;;;;;;;21.66;55.79;102026.83;;;;-59
2019/09/13 13:24:34;;;;;;;9.29;2.47;;;;;;;21.66;55.63;102025.81;;;;-59
2019/09/13 13:27:34;;;;;;;5.73;2.31;;;;;;;21.68;55.77;102029.01;;;;-58
2019/09/13 13:30:34;;;;;;;7.90;2.27;;;;;;;21.67;55.64;102028.45;;;;-49
2019/09/13 13:33:34;;;;;;;8.01;2.40;;;;;;;21.69;55.57;102033.39;;;;-59
2019/09/13 13:37:34;;;;;;;6.51;2.46;;;;;;;21.69;55.78;102029.23;;;;-59
2019/09/13 13:40:35;;;;;;;7.53;2.23;;;;;;;21.70;55.65;102031.31;;;;-56
2019/09/13 13:43:34;;;;;;;8.49;2.21;;;;;;;21.71;55.58;102027.47;;;;-54
2019/09/13 13:46:34;;;;;;;8.70;2.53;;;;;;;21.71;55.57;102030.11;;;;-52
2019/09/13 13:49:34;;;;;;;6.88;2.08;;;;;;;21.71;55.53;102030.42;;;;-49
2019/09/13 13:52:34;;;;;;;8.65;2.25;;;;;;;21.72;55.59;102036.94;;;;-57
2019/09/13 13:55:34;;;;;;;6.43;2.35;;;;;;;21.71;55.54;102032.63;;;;-52
2019/09/13 13:58:35;;;;;;;11.50;2.15;;;;;;;21.72;55.63;102033.80;;;;-51
2019/09/13 14:01:34;;;;;;;6.76;2.11;;;;;;;21.73;55.69;102031.39;;;;-54
2019/09/13 14:04:34;;;;;;;7.57;2.37;;;;;;;21.72;55.37;102031.68;;;;-54
2019/09/13 14:07:34;;;;;;;6.64;2.37;;;;;;;21.71;55.52;102031.12;;;;-53
2019/09/13 14:10:34;;;;;;;6.06;2.12;;;;;;;21.71;55.43;102029.86;;;;-53
2019/09/13 14:13:34;;;;;;;5.38;1.97;;;;;;;21.70;55.49;102032.56;;;;-53
2019/09/13 14:16:35;;;;;;;7.35;2.20;;;;;;;21.70;55.45;102024.42;;;;-53
2019/09/13 14:19:55;;;;;;;9.01;2.15;;;;;;;21.69;55.58;102022.97;;;;-53
2019/09/13 14:22:35;;;;;;;7.40;2.42;;;;;;;21.69;55.42;102020.78;;;;-49
2019/09/13 14:25:34;;;;;;;6.82;2.17;;;;;;;21.70;55.63;102020.67;;;;-46
2019/09/13 14:28:35;;;;;;;3.61;1.91;;;;;;;21.73;55.53;102020.19;;;;-49
2019/09/13 14:31:35;;;;;;;13.33;2.34;;;;;;;21.74;55.41;102021.97;;;;-48
2019/09/13 14:34:34;;;;;;;7.19;2.09;;;;;;;21.74;55.68;102019.78;;;;-47
2019/09/13 14:37:34;;;;;;;6.99;2.18;;;;;;;21.73;55.59;102021.47;;;;-49
2019/09/13 14:40:34;;;;;;;10.59;2.29;;;;;;;21.73;55.78;102018.79;;;;-49
2019/09/13 14:43:34;;;;;;;4.51;2.14;;;;;;;21.72;55.62;102018.61;;;;-49
2019/09/13 14:46:34;;;;;;;7.75;2.10;;;;;;;21.73;55.50;102027.08;;;;-49
2019/09/13 14:49:34;;;;;;;5.10;2.14;;;;;;;21.71;55.43;102026.74;;;;-49
2019/09/13 14:52:34;;;;;;;5.53;2.43;;;;;;;21.72;55.41;102022.81;;;;-49
2019/09/13 14:55:34;;;;;;;9.78;2.11;;;;;;;21.71;55.45;102022.19;;;;-49
2019/09/13 14:58:34;;;;;;;7.62;2.14;;;;;;;21.70;55.44;102027.68;;;;-50
2019/09/13 15:01:34;;;;;;;5.14;2.19;;;;;;;21.70;55.38;102032.06;;;;-49
2019/09/13 15:04:34;;;;;;;4.15;2.03;;;;;;;21.69;55.40;102029.98;;;;-50
2019/09/13 15:07:34;;;;;;;4.58;2.01;;;;;;;21.69;55.27;102031.31;;;;-56
2019/09/13 15:10:34;;;;;;;5.11;1.96;;;;;;;21.69;55.19;102026.00;;;;-55
2019/09/13 15:13:34;;;;;;;5.99;2.05;;;;;;;21.68;55.19;102025.31;;;;-56
2019/09/13 15:16:34;;;;;;;4.77;1.98;;;;;;;21.67;55.24;102023.46;;;;-56
2019/09/13 15:19:34;;;;;;;3.56;1.77;;;;;;;21.67;55.18;102019.20;;;;-55
2019/09/13 15:22:34;;;;;;;3.51;1.87;;;;;;;21.66;55.19;102019.41;;;;-55
2019/09/13 15:25:34;;;;;;;3.23;2.00;;;;;;;21.65;55.17;102011.84;;;;-56
2019/09/13 15:28:34;;;;;;;2.93;1.79;;;;;;;21.65;55.17;102020.53;;;;-56
2019/09/13 15:31:34;;;;;;;4.51;2.00;;;;;;;21.65;55.09;102018.69;;;;-56
2019/09/13 15:34:34;;;;;;;3.02;1.91;;;;;;;21.66;55.08;102019.53;;;;-57
2019/09/13 15:37:34;;;;;;;4.17;2.09;;;;;;;21.64;55.26;102017.11;;;;-49
2019/09/13 15:40:34;;;;;;;3.47;1.65;;;;;;;21.66;55.32;102016.61;;;;-48
2019/09/13 15:43:34;;;;;;;3.65;1.99;;;;;;;21.69;55.44;102017.59;;;;-48
2019/09/13 15:46:34;;;;;;;2.75;1.81;;;;;;;21.69;55.44;102018.94;;;;-53
2019/09/13 15:49:34;;;;;;;4.54;1.83;;;;;;;21.70;55.37;102021.18;;;;-58
2019/09/13 15:52:34;;;;;;;4.70;2.06;;;;;;;21.71;55.64;102019.10;;;;-48
2019/09/13 15:55:34;;;;;;;3.26;1.73;;;;;;;21.73;55.64;102014.97;;;;-45
2019/09/13 15:58:34;;;;;;;3.86;1.97;;;;;;;21.75;55.73;102017.72;;;;-45
2019/09/13 16:01:34;;;;;;;4.56;1.79;;;;;;;21.75;55.63;102015.72;;;;-47
2019/09/13 16:04:34;;;;;;;4.63;1.89;;;;;;;21.76;55.53;102016.61;;;;-51
2019/09/13 16:07:34;;;;;;;4.91;1.95;;;;;;;21.74;55.46;102016.83;;;;-47
2019/09/13 16:10:34;;;;;;;4.50;1.85;;;;;;;21.73;55.51;102014.25;;;;-47
2019/09/13 16:13:34;;;;;;;4.29;1.64;;;;;;;21.74;55.44;102014.53;;;;-47
2019/09/13 16:16:34;;;;;;;3.15;1.71;;;;;;;21.74;55.48;102017.89;;;;-47
2019/09/13 16:19:34;;;;;;;6.06;1.93;;;;;;;21.74;55.39;102019.91;;;;-47
2019/09/13 16:22:34;;;;;;;3.47;1.82;;;;;;;21.73;55.40;102022.98;;;;-47
2019/09/13 16:25:34;;;;;;;4.65;1.80;;;;;;;21.73;55.29;102027.08;;;;-47
2019/09/13 16:28:34;;;;;;;5.27;1.80;;;;;;;21.72;55.25;102028.31;;;;-47
2019/09/13 16:31:34;;;;;;;3.61;1.69;;;;;;;21.72;55.29;102025.55;;;;-48
2019/09/13 16:34:34;;;;;;;5.26;1.70;;;;;;;21.71;55.26;102027.41;;;;-48
2019/09/13 16:37:35;;;;;;;3.81;1.62;;;;;;;21.71;55.24;102031.88;;;;-47
2019/09/13 16:40:34;;;;;;;3.45;1.68;;;;;;;21.71;55.47;102029.19;;;;-48
2019/09/13 16:43:34;;;;;;;5.97;1.83;;;;;;;21.71;55.40;102032.12;;;;-48